sensor_id;sensor_type;location;lat;lon;timestamp;temperature;humidity
37518;DHT22;23366;52.498;13.446;2023-04-15T00:01:26;8.60;99.90
37518;DHT22;23366;52.498;13.446;2023-04-15T00:03:53;8.50;99.90
37518;DHT22;23366;52.498;13.446;2023-04-15T00:06:20;8.50;99.90
37518;DHT22;23366;52.498;13.446;2023-04-15T00:08:46;8.50;99.90
37518;DHT22;23366;52.498;13.446;2023-04-15T00:11:12;8.50;99.90
37518;DHT22;23366;52.498;13.446;2023-04-15T00:13:38;8.50;99.90
37518;DHT22;23366;52.498;13.446;2023-04-15T00:16:05;8.50;99.90
37518;DHT22;23366;52.498;13.446;2023-04-15T00:18:31;8.50;99.90
37518;DHT22;23366;52.498;13.446;2023-04-15T00:20:57;8.60;99.90
37518;DHT22;23366;52.498;13.446;2023-04-15T00:23:23;8.50;99.90
37518;DHT22;23366;52.498;13.446;2023-04-15T00:25:49;8.60;99.90
37518;DHT22;23366;52.498;13.446;2023-04-15T00:28:15;8.60;99.90
37518;DHT22;23366;52.498;13.446;2023-04-15T00:30:40;8.60;99.90
37518;DHT22;23366;52.498;13.446;2023-04-15T00:33:06;8.60;99.90
37518;DHT22;23366;52.498;13.446;2023-04-15T00:35:32;8.60;99.90
37518;DHT22;23366;52.498;13.446;2023-04-15T00:37:58;8.60;99.90
37518;DHT22;23366;52.498;13.446;2023-04-15T00:40:24;8.60;99.90
37518;DHT22;23366;52.498;13.446;2023-04-15T00:42:50;8.60;99.90
37518;DHT22;23366;52.498;13.446;2023-04-15T00:45:16;8.60;99.90
37518;DHT22;23366;52.498;13.446;2023-04-15T00:47:43;8.50;99.90
37518;DHT22;23366;52.498;13.446;2023-04-15T00:50:09;8.50;99.90
37518;DHT22;23366;52.498;13.446;2023-04-15T00:52:35;8.50;99.90
37518;DHT22;23366;52.498;13.446;2023-04-15T00:55:01;8.50;99.90
37518;DHT22;23366;52.498;13.446;2023-04-15T00:57:29;8.50;99.90
37518;DHT22;23366;52.498;13.446;2023-04-15T00:59:55;8.50;99.90
37518;DHT22;23366;52.498;13.446;2023-04-15T01:02:21;8.50;99.90
37518;DHT22;23366;52.498;13.446;2023-04-15T01:04:47;8.60;99.90
37518;DHT22;23366;52.498;13.446;2023-04-15T01:07:13;8.50;99.90
37518;DHT22;23366;52.498;13.446;2023-04-15T01:09:39;8.50;99.90
37518;DHT22;23366;52.498;13.446;2023-04-15T01:12:05;8.50;99.90
37518;DHT22;23366;52.498;13.446;2023-04-15T01:14:32;8.40;99.90
37518;DHT22;23366;52.498;13.446;2023-04-15T01:16:58;8.50;99.90
37518;DHT22;23366;52.498;13.446;2023-04-15T01:19:23;8.50;99.90
37518;DHT22;23366;52.498;13.446;2023-04-15T01:21:49;8.40;99.90
37518;DHT22;23366;52.498;13.446;2023-04-15T01:24:17;8.40;99.90
37518;DHT22;23366;52.498;13.446;2023-04-15T01:26:42;8.40;99.90
37518;DHT22;23366;52.498;13.446;2023-04-15T01:29:08;8.40;99.90
37518;DHT22;23366;52.498;13.446;2023-04-15T01:31:34;8.30;99.90
37518;DHT22;23366;52.498;13.446;2023-04-15T01:34:00;8.40;99.90
37518;DHT22;23366;52.498;13.446;2023-04-15T01:36:26;8.30;99.90
37518;DHT22;23366;52.498;13.446;2023-04-15T01:38:52;8.30;99.90
37518;DHT22;23366;52.498;13.446;2023-04-15T01:41:28;8.30;99.90
37518;DHT22;23366;52.498;13.446;2023-04-15T01:43:54;8.30;99.90
37518;DHT22;23366;52.498;13.446;2023-04-15T01:46:20;8.30;99.90
37518;DHT22;23366;52.498;13.446;2023-04-15T01:48:45;8.30;99.90
37518;DHT22;23366;52.498;13.446;2023-04-15T01:51:11;8.30;99.90
37518;DHT22;23366;52.498;13.446;2023-04-15T01:53:37;8.30;99.90
37518;DHT22;23366;52.498;13.446;2023-04-15T01:56:02;8.30;99.90
37518;DHT22;23366;52.498;13.446;2023-04-15T01:58:28;8.30;99.90
37518;DHT22;23366;52.498;13.446;2023-04-15T02:00:54;8.20;99.90
37518;DHT22;23366;52.498;13.446;2023-04-15T02:03:20;8.30;99.90
37518;DHT22;23366;52.498;13.446;2023-04-15T02:05:46;8.30;99.90
37518;DHT22;23366;52.498;13.446;2023-04-15T02:08:11;8.30;99.90
37518;DHT22;23366;52.498;13.446;2023-04-15T02:10:37;8.30;99.90
37518;DHT22;23366;52.498;13.446;2023-04-15T02:13:03;8.30;99.90
37518;DHT22;23366;52.498;13.446;2023-04-15T02:15:29;8.30;99.90
37518;DHT22;23366;52.498;13.446;2023-04-15T02:17:54;8.30;99.90
37518;DHT22;23366;52.498;13.446;2023-04-15T02:20:20;8.30;99.90
37518;DHT22;23366;52.498;13.446;2023-04-15T02:22:46;8.40;99.90
37518;DHT22;23366;52.498;13.446;2023-04-15T02:25:13;8.40;99.90
37518;DHT22;23366;52.498;13.446;2023-04-15T02:27:39;8.40;99.90
37518;DHT22;23366;52.498;13.446;2023-04-15T02:30:05;8.30;99.90
37518;DHT22;23366;52.498;13.446;2023-04-15T02:32:32;8.30;99.90
37518;DHT22;23366;52.498;13.446;2023-04-15T02:35:03;8.30;99.90
37518;DHT22;23366;52.498;13.446;2023-04-15T02:37:30;8.30;99.90
37518;DHT22;23366;52.498;13.446;2023-04-15T02:39:56;8.30;99.90
37518;DHT22;23366;52.498;13.446;2023-04-15T02:42:21;8.30;99.90
37518;DHT22;23366;52.498;13.446;2023-04-15T02:44:47;8.30;99.90
37518;DHT22;23366;52.498;13.446;2023-04-15T02:47:12;8.20;99.90
37518;DHT22;23366;52.498;13.446;2023-04-15T02:49:39;8.30;99.90
37518;DHT22;23366;52.498;13.446;2023-04-15T02:52:05;8.30;99.90
37518;DHT22;23366;52.498;13.446;2023-04-15T02:54:31;8.30;99.90
37518;DHT22;23366;52.498;13.446;2023-04-15T02:56:58;8.30;99.90
37518;DHT22;23366;52.498;13.446;2023-04-15T02:59:24;8.40;99.90
37518;DHT22;23366;52.498;13.446;2023-04-15T03:01:50;8.30;99.90
37518;DHT22;23366;52.498;13.446;2023-04-15T03:04:15;8.30;99.90
37518;DHT22;23366;52.498;13.446;2023-04-15T03:06:41;8.30;99.90
37518;DHT22;23366;52.498;13.446;2023-04-15T03:09:07;8.40;99.90
37518;DHT22;23366;52.498;13.446;2023-04-15T03:11:32;8.40;99.90
37518;DHT22;23366;52.498;13.446;2023-04-15T03:13:58;8.40;99.90
37518;DHT22;23366;52.498;13.446;2023-04-15T03:16:24;8.40;99.90
37518;DHT22;23366;52.498;13.446;2023-04-15T03:18:50;8.40;99.90
37518;DHT22;23366;52.498;13.446;2023-04-15T03:21:15;8.40;99.90
37518;DHT22;23366;52.498;13.446;2023-04-15T03:23:41;8.40;99.90
37518;DHT22;23366;52.498;13.446;2023-04-15T03:26:06;8.40;99.90
37518;DHT22;23366;52.498;13.446;2023-04-15T03:28:32;8.40;99.90
37518;DHT22;23366;52.498;13.446;2023-04-15T03:30:58;8.40;99.90
37518;DHT22;23366;52.498;13.446;2023-04-15T03:33:24;8.40;99.90
37518;DHT22;23366;52.498;13.446;2023-04-15T03:35:50;8.40;99.90
37518;DHT22;23366;52.498;13.446;2023-04-15T03:38:16;8.40;99.90
37518;DHT22;23366;52.498;13.446;2023-04-15T03:40:42;8.40;99.90
37518;DHT22;23366;52.498;13.446;2023-04-15T03:43:07;8.50;99.90
37518;DHT22;23366;52.498;13.446;2023-04-15T03:45:33;8.50;99.90
37518;DHT22;23366;52.498;13.446;2023-04-15T03:47:58;8.50;99.90
37518;DHT22;23366;52.498;13.446;2023-04-15T03:50:27;8.50;99.90
37518;DHT22;23366;52.498;13.446;2023-04-15T03:52:52;8.60;99.90
37518;DHT22;23366;52.498;13.446;2023-04-15T03:55:18;8.60;99.90
37518;DHT22;23366;52.498;13.446;2023-04-15T03:57:44;8.60;99.90
37518;DHT22;23366;52.498;13.446;2023-04-15T04:00:10;8.60;99.90
37518;DHT22;23366;52.498;13.446;2023-04-15T04:02:35;8.60;99.90
37518;DHT22;23366;52.498;13.446;2023-04-15T04:05:01;8.60;99.90
37518;DHT22;23366;52.498;13.446;2023-04-15T04:07:26;8.60;99.90
37518;DHT22;23366;52.498;13.446;2023-04-15T04:09:52;8.60;99.90
37518;DHT22;23366;52.498;13.446;2023-04-15T04:12:17;8.60;99.90
37518;DHT22;23366;52.498;13.446;2023-04-15T04:14:43;8.70;99.90
37518;DHT22;23366;52.498;13.446;2023-04-15T04:17:09;8.60;99.90
37518;DHT22;23366;52.498;13.446;2023-04-15T04:19:34;8.60;99.90
37518;DHT22;23366;52.498;13.446;2023-04-15T04:22:00;8.70;99.90
37518;DHT22;23366;52.498;13.446;2023-04-15T04:24:26;8.70;99.90
37518;DHT22;23366;52.498;13.446;2023-04-15T04:26:51;8.70;99.90
37518;DHT22;23366;52.498;13.446;2023-04-15T04:29:17;8.70;99.90
37518;DHT22;23366;52.498;13.446;2023-04-15T04:31:42;8.70;99.90
37518;DHT22;23366;52.498;13.446;2023-04-15T04:34:08;8.70;99.90
37518;DHT22;23366;52.498;13.446;2023-04-15T04:36:33;8.70;99.90
37518;DHT22;23366;52.498;13.446;2023-04-15T04:38:59;8.80;99.90
37518;DHT22;23366;52.498;13.446;2023-04-15T04:41:25;8.80;99.90
37518;DHT22;23366;52.498;13.446;2023-04-15T04:43:51;8.70;99.90
37518;DHT22;23366;52.498;13.446;2023-04-15T04:46:17;8.80;99.90
37518;DHT22;23366;52.498;13.446;2023-04-15T04:48:42;8.80;99.90
37518;DHT22;23366;52.498;13.446;2023-04-15T04:51:08;8.80;99.90
37518;DHT22;23366;52.498;13.446;2023-04-15T04:53:34;8.80;99.90
37518;DHT22;23366;52.498;13.446;2023-04-15T04:55:59;8.80;99.90
37518;DHT22;23366;52.498;13.446;2023-04-15T04:58:25;8.90;99.90
37518;DHT22;23366;52.498;13.446;2023-04-15T05:00:51;8.90;99.90
37518;DHT22;23366;52.498;13.446;2023-04-15T05:03:17;8.90;99.90
37518;DHT22;23366;52.498;13.446;2023-04-15T05:05:42;8.90;99.90
37518;DHT22;23366;52.498;13.446;2023-04-15T05:08:08;8.90;99.90
37518;DHT22;23366;52.498;13.446;2023-04-15T05:10:33;8.90;99.90
37518;DHT22;23366;52.498;13.446;2023-04-15T05:12:59;8.90;99.90
37518;DHT22;23366;52.498;13.446;2023-04-15T05:15:25;9.00;99.90
37518;DHT22;23366;52.498;13.446;2023-04-15T05:17:50;9.00;99.90
37518;DHT22;23366;52.498;13.446;2023-04-15T05:20:16;9.00;99.90
37518;DHT22;23366;52.498;13.446;2023-04-15T05:22:42;9.00;99.90
37518;DHT22;23366;52.498;13.446;2023-04-15T05:25:08;9.00;99.90
37518;DHT22;23366;52.498;13.446;2023-04-15T05:27:34;9.00;99.90
37518;DHT22;23366;52.498;13.446;2023-04-15T05:29:59;9.00;99.90
37518;DHT22;23366;52.498;13.446;2023-04-15T05:32:25;9.00;99.90
37518;DHT22;23366;52.498;13.446;2023-04-15T05:34:51;9.00;99.90
37518;DHT22;23366;52.498;13.446;2023-04-15T05:37:16;9.00;99.90
37518;DHT22;23366;52.498;13.446;2023-04-15T05:39:45;9.00;99.90
37518;DHT22;23366;52.498;13.446;2023-04-15T05:42:10;9.10;99.90
37518;DHT22;23366;52.498;13.446;2023-04-15T05:44:36;9.10;99.90
37518;DHT22;23366;52.498;13.446;2023-04-15T05:47:01;9.10;99.90
37518;DHT22;23366;52.498;13.446;2023-04-15T05:49:28;9.20;99.90
37518;DHT22;23366;52.498;13.446;2023-04-15T05:51:53;9.10;99.90
37518;DHT22;23366;52.498;13.446;2023-04-15T05:54:19;9.10;99.90
37518;DHT22;23366;52.498;13.446;2023-04-15T05:56:46;9.20;99.90
37518;DHT22;23366;52.498;13.446;2023-04-15T05:59:11;9.20;99.90
37518;DHT22;23366;52.498;13.446;2023-04-15T06:01:37;9.20;99.90
37518;DHT22;23366;52.498;13.446;2023-04-15T06:04:03;9.20;99.90
37518;DHT22;23366;52.498;13.446;2023-04-15T06:06:28;9.20;99.90
37518;DHT22;23366;52.498;13.446;2023-04-15T06:08:54;9.20;99.90
37518;DHT22;23366;52.498;13.446;2023-04-15T06:11:20;9.30;99.90
37518;DHT22;23366;52.498;13.446;2023-04-15T06:13:46;9.30;99.90
37518;DHT22;23366;52.498;13.446;2023-04-15T06:16:11;9.30;99.90
37518;DHT22;23366;52.498;13.446;2023-04-15T06:18:37;9.40;99.90
37518;DHT22;23366;52.498;13.446;2023-04-15T06:21:03;9.50;99.90
37518;DHT22;23366;52.498;13.446;2023-04-15T06:23:29;9.50;99.90
37518;DHT22;23366;52.498;13.446;2023-04-15T06:25:55;9.50;99.90
37518;DHT22;23366;52.498;13.446;2023-04-15T06:28:21;9.50;99.90
37518;DHT22;23366;52.498;13.446;2023-04-15T06:30:46;9.50;99.90
37518;DHT22;23366;52.498;13.446;2023-04-15T06:33:12;9.50;99.90
37518;DHT22;23366;52.498;13.446;2023-04-15T06:35:37;9.60;99.90
37518;DHT22;23366;52.498;13.446;2023-04-15T06:38:03;9.60;99.90
37518;DHT22;23366;52.498;13.446;2023-04-15T06:40:29;9.70;99.90
37518;DHT22;23366;52.498;13.446;2023-04-15T06:42:54;9.90;99.90
37518;DHT22;23366;52.498;13.446;2023-04-15T06:45:20;9.90;99.90
37518;DHT22;23366;52.498;13.446;2023-04-15T06:47:45;10.00;99.90
37518;DHT22;23366;52.498;13.446;2023-04-15T06:50:11;10.10;99.90
37518;DHT22;23366;52.498;13.446;2023-04-15T06:52:37;10.30;99.90
37518;DHT22;23366;52.498;13.446;2023-04-15T06:55:03;10.40;99.90
37518;DHT22;23366;52.498;13.446;2023-04-15T06:57:29;10.70;99.90
37518;DHT22;23366;52.498;13.446;2023-04-15T06:59:55;10.70;99.90
37518;DHT22;23366;52.498;13.446;2023-04-15T07:02:20;11.00;99.90
37518;DHT22;23366;52.498;13.446;2023-04-15T07:04:46;11.10;99.90
37518;DHT22;23366;52.498;13.446;2023-04-15T07:07:12;11.20;99.90
37518;DHT22;23366;52.498;13.446;2023-04-15T07:09:37;11.40;99.90
37518;DHT22;23366;52.498;13.446;2023-04-15T07:12:03;11.30;99.90
37518;DHT22;23366;52.498;13.446;2023-04-15T07:14:28;11.20;99.90
37518;DHT22;23366;52.498;13.446;2023-04-15T07:16:54;11.10;99.90
37518;DHT22;23366;52.498;13.446;2023-04-15T07:19:19;11.00;99.90
37518;DHT22;23366;52.498;13.446;2023-04-15T07:21:46;10.90;99.90
37518;DHT22;23366;52.498;13.446;2023-04-15T07:24:11;10.90;99.90
37518;DHT22;23366;52.498;13.446;2023-04-15T07:26:40;10.80;99.90
37518;DHT22;23366;52.498;13.446;2023-04-15T07:29:05;10.80;99.90
37518;DHT22;23366;52.498;13.446;2023-04-15T07:31:31;10.80;99.90
37518;DHT22;23366;52.498;13.446;2023-04-15T07:33:57;10.60;99.90
37518;DHT22;23366;52.498;13.446;2023-04-15T07:36:22;10.50;99.90
37518;DHT22;23366;52.498;13.446;2023-04-15T07:38:48;10.40;99.90
37518;DHT22;23366;52.498;13.446;2023-04-15T07:41:13;10.40;99.90
37518;DHT22;23366;52.498;13.446;2023-04-15T07:43:40;10.20;99.90
37518;DHT22;23366;52.498;13.446;2023-04-15T07:46:05;10.10;99.90
37518;DHT22;23366;52.498;13.446;2023-04-15T07:48:31;10.10;99.90
37518;DHT22;23366;52.498;13.446;2023-04-15T07:50:56;10.10;99.90
37518;DHT22;23366;52.498;13.446;2023-04-15T07:53:22;10.00;99.90
37518;DHT22;23366;52.498;13.446;2023-04-15T07:55:47;10.10;99.90
37518;DHT22;23366;52.498;13.446;2023-04-15T07:58:13;10.00;99.90
37518;DHT22;23366;52.498;13.446;2023-04-15T08:00:38;10.10;99.90
37518;DHT22;23366;52.498;13.446;2023-04-15T08:03:04;10.10;99.90
37518;DHT22;23366;52.498;13.446;2023-04-15T08:05:30;10.10;99.90
37518;DHT22;23366;52.498;13.446;2023-04-15T08:07:55;10.20;99.90
37518;DHT22;23366;52.498;13.446;2023-04-15T08:10:21;10.20;99.90
37518;DHT22;23366;52.498;13.446;2023-04-15T08:12:48;10.30;99.90
37518;DHT22;23366;52.498;13.446;2023-04-15T08:15:13;10.20;99.90
37518;DHT22;23366;52.498;13.446;2023-04-15T08:17:39;10.20;99.90
37518;DHT22;23366;52.498;13.446;2023-04-15T08:20:05;10.20;99.90
37518;DHT22;23366;52.498;13.446;2023-04-15T08:22:31;10.10;99.90
37518;DHT22;23366;52.498;13.446;2023-04-15T08:24:56;10.10;99.90
37518;DHT22;23366;52.498;13.446;2023-04-15T08:27:22;10.00;99.90
37518;DHT22;23366;52.498;13.446;2023-04-15T08:29:47;9.90;99.90
37518;DHT22;23366;52.498;13.446;2023-04-15T08:32:13;9.90;99.90
37518;DHT22;23366;52.498;13.446;2023-04-15T08:34:39;9.90;99.90
37518;DHT22;23366;52.498;13.446;2023-04-15T08:37:04;9.90;99.90
37518;DHT22;23366;52.498;13.446;2023-04-15T08:39:31;9.90;99.90
37518;DHT22;23366;52.498;13.446;2023-04-15T08:42:01;9.90;99.90
37518;DHT22;23366;52.498;13.446;2023-04-15T08:44:33;9.90;99.90
37518;DHT22;23366;52.498;13.446;2023-04-15T08:47:02;10.00;99.90
37518;DHT22;23366;52.498;13.446;2023-04-15T08:49:31;10.00;99.90
37518;DHT22;23366;52.498;13.446;2023-04-15T08:51:59;10.00;99.90
37518;DHT22;23366;52.498;13.446;2023-04-15T08:54:26;9.90;99.90
37518;DHT22;23366;52.498;13.446;2023-04-15T08:56:52;9.90;99.90
37518;DHT22;23366;52.498;13.446;2023-04-15T08:59:19;9.90;99.90
37518;DHT22;23366;52.498;13.446;2023-04-15T09:01:47;9.90;99.90
37518;DHT22;23366;52.498;13.446;2023-04-15T09:04:13;10.00;99.90
37518;DHT22;23366;52.498;13.446;2023-04-15T09:06:39;10.00;99.90
37518;DHT22;23366;52.498;13.446;2023-04-15T09:09:04;10.10;99.90
37518;DHT22;23366;52.498;13.446;2023-04-15T09:11:30;10.10;99.90
37518;DHT22;23366;52.498;13.446;2023-04-15T09:13:55;10.10;99.90
37518;DHT22;23366;52.498;13.446;2023-04-15T09:16:21;10.20;99.90
37518;DHT22;23366;52.498;13.446;2023-04-15T09:18:47;10.20;99.90
37518;DHT22;23366;52.498;13.446;2023-04-15T09:21:14;10.20;99.90
37518;DHT22;23366;52.498;13.446;2023-04-15T09:23:56;10.20;99.90
37518;DHT22;23366;52.498;13.446;2023-04-15T09:26:37;10.20;99.90
37518;DHT22;23366;52.498;13.446;2023-04-15T09:29:05;10.20;99.90
37518;DHT22;23366;52.498;13.446;2023-04-15T09:31:31;10.20;99.90
37518;DHT22;23366;52.498;13.446;2023-04-15T09:33:57;10.20;99.90
37518;DHT22;23366;52.498;13.446;2023-04-15T09:36:23;10.30;99.90
37518;DHT22;23366;52.498;13.446;2023-04-15T09:38:56;10.20;99.90
37518;DHT22;23366;52.498;13.446;2023-04-15T09:41:22;10.20;99.90
37518;DHT22;23366;52.498;13.446;2023-04-15T09:43:48;10.20;99.90
37518;DHT22;23366;52.498;13.446;2023-04-15T09:46:14;10.10;99.90
37518;DHT22;23366;52.498;13.446;2023-04-15T09:48:39;10.10;99.90
37518;DHT22;23366;52.498;13.446;2023-04-15T09:51:05;10.10;99.90
37518;DHT22;23366;52.498;13.446;2023-04-15T09:53:33;10.10;99.90
37518;DHT22;23366;52.498;13.446;2023-04-15T09:56:00;10.10;99.90
37518;DHT22;23366;52.498;13.446;2023-04-15T09:58:28;10.10;99.90
37518;DHT22;23366;52.498;13.446;2023-04-15T10:00:55;10.10;99.90
37518;DHT22;23366;52.498;13.446;2023-04-15T10:03:26;10.00;99.90
37518;DHT22;23366;52.498;13.446;2023-04-15T10:05:54;10.10;99.90
37518;DHT22;23366;52.498;13.446;2023-04-15T10:08:22;10.10;99.90
37518;DHT22;23366;52.498;13.446;2023-04-15T10:10:49;10.00;99.90
37518;DHT22;23366;52.498;13.446;2023-04-15T10:13:29;10.10;99.90
37518;DHT22;23366;52.498;13.446;2023-04-15T10:15:59;10.10;99.90
37518;DHT22;23366;52.498;13.446;2023-04-15T10:18:27;10.00;99.90
37518;DHT22;23366;52.498;13.446;2023-04-15T10:20:53;10.00;99.90
37518;DHT22;23366;52.498;13.446;2023-04-15T10:23:21;10.00;99.90
37518;DHT22;23366;52.498;13.446;2023-04-15T10:25:48;10.10;99.90
37518;DHT22;23366;52.498;13.446;2023-04-15T10:28:14;10.10;99.90
37518;DHT22;23366;52.498;13.446;2023-04-15T10:30:41;10.00;99.90
37518;DHT22;23366;52.498;13.446;2023-04-15T10:33:08;10.00;99.90
37518;DHT22;23366;52.498;13.446;2023-04-15T10:35:35;10.00;99.90
37518;DHT22;23366;52.498;13.446;2023-04-15T10:38:01;9.90;99.90
37518;DHT22;23366;52.498;13.446;2023-04-15T10:40:30;10.00;99.90
37518;DHT22;23366;52.498;13.446;2023-04-15T10:43:01;10.00;99.90
37518;DHT22;23366;52.498;13.446;2023-04-15T10:45:31;10.00;99.90
37518;DHT22;23366;52.498;13.446;2023-04-15T10:47:58;10.00;99.90
37518;DHT22;23366;52.498;13.446;2023-04-15T10:50:26;10.00;99.90
37518;DHT22;23366;52.498;13.446;2023-04-15T10:52:53;10.00;99.90
37518;DHT22;23366;52.498;13.446;2023-04-15T10:55:26;10.10;99.90
37518;DHT22;23366;52.498;13.446;2023-04-15T10:58:00;10.10;99.90
37518;DHT22;23366;52.498;13.446;2023-04-15T11:00:31;10.00;99.90
37518;DHT22;23366;52.498;13.446;2023-04-15T11:02:58;10.00;99.90
37518;DHT22;23366;52.498;13.446;2023-04-15T11:08:04;10.00;99.90
37518;DHT22;23366;52.498;13.446;2023-04-15T11:12:59;9.90;99.90
37518;DHT22;23366;52.498;13.446;2023-04-15T11:15:37;9.90;99.90
37518;DHT22;23366;52.498;13.446;2023-04-15T11:18:11;9.90;99.90
37518;DHT22;23366;52.498;13.446;2023-04-15T11:20:38;9.90;99.90
37518;DHT22;23366;52.498;13.446;2023-04-15T11:23:05;9.90;99.90
37518;DHT22;23366;52.498;13.446;2023-04-15T11:25:32;9.90;99.90
37518;DHT22;23366;52.498;13.446;2023-04-15T11:28:00;9.90;99.90
37518;DHT22;23366;52.498;13.446;2023-04-15T11:30:31;9.90;99.90
37518;DHT22;23366;52.498;13.446;2023-04-15T11:33:02;9.90;99.90
37518;DHT22;23366;52.498;13.446;2023-04-15T11:35:28;10.00;99.90
37518;DHT22;23366;52.498;13.446;2023-04-15T11:37:54;10.00;99.90
37518;DHT22;23366;52.498;13.446;2023-04-15T11:40:29;10.00;99.90
37518;DHT22;23366;52.498;13.446;2023-04-15T11:43:09;10.00;99.90
37518;DHT22;23366;52.498;13.446;2023-04-15T11:45:36;10.00;99.90
37518;DHT22;23366;52.498;13.446;2023-04-15T11:48:09;10.00;99.90
37518;DHT22;23366;52.498;13.446;2023-04-15T11:50:35;10.10;99.90
37518;DHT22;23366;52.498;13.446;2023-04-15T11:53:03;10.00;99.90
37518;DHT22;23366;52.498;13.446;2023-04-15T11:55:30;10.00;99.90
37518;DHT22;23366;52.498;13.446;2023-04-15T11:58:09;10.00;99.90
37518;DHT22;23366;52.498;13.446;2023-04-15T12:00:35;10.00;99.90
37518;DHT22;23366;52.498;13.446;2023-04-15T12:03:34;10.00;99.90
37518;DHT22;23366;52.498;13.446;2023-04-15T12:11:55;10.10;99.90
37518;DHT22;23366;52.498;13.446;2023-04-15T12:14:25;10.10;99.90
37518;DHT22;23366;52.498;13.446;2023-04-15T12:16:55;10.10;99.90
37518;DHT22;23366;52.498;13.446;2023-04-15T12:19:33;10.20;99.90
37518;DHT22;23366;52.498;13.446;2023-04-15T12:22:02;10.20;99.90
37518;DHT22;23366;52.498;13.446;2023-04-15T12:24:31;10.20;99.90
37518;DHT22;23366;52.498;13.446;2023-04-15T12:27:00;10.20;99.90
37518;DHT22;23366;52.498;13.446;2023-04-15T12:29:28;10.30;99.90
37518;DHT22;23366;52.498;13.446;2023-04-15T12:31:55;10.30;99.90
37518;DHT22;23366;52.498;13.446;2023-04-15T12:34:29;10.30;99.90
37518;DHT22;23366;52.498;13.446;2023-04-15T12:36:56;10.30;99.90
37518;DHT22;23366;52.498;13.446;2023-04-15T12:39:27;10.40;99.90
37518;DHT22;23366;52.498;13.446;2023-04-15T12:41:53;10.30;99.90
37518;DHT22;23366;52.498;13.446;2023-04-15T12:44:20;10.40;99.90
37518;DHT22;23366;52.498;13.446;2023-04-15T12:46:46;10.50;99.90
37518;DHT22;23366;52.498;13.446;2023-04-15T12:49:12;10.50;99.90
37518;DHT22;23366;52.498;13.446;2023-04-15T12:51:39;10.50;99.90
37518;DHT22;23366;52.498;13.446;2023-04-15T12:54:05;10.50;99.90
37518;DHT22;23366;52.498;13.446;2023-04-15T12:56:30;10.50;99.90
37518;DHT22;23366;52.498;13.446;2023-04-15T12:58:56;10.40;99.90
37518;DHT22;23366;52.498;13.446;2023-04-15T13:01:21;10.50;99.90
37518;DHT22;23366;52.498;13.446;2023-04-15T13:03:47;10.40;99.90
37518;DHT22;23366;52.498;13.446;2023-04-15T13:06:14;10.40;99.90
37518;DHT22;23366;52.498;13.446;2023-04-15T13:08:40;10.50;99.90
37518;DHT22;23366;52.498;13.446;2023-04-15T13:11:05;10.50;99.90
37518;DHT22;23366;52.498;13.446;2023-04-15T13:13:31;10.60;99.90
37518;DHT22;23366;52.498;13.446;2023-04-15T13:15:57;10.50;99.90
37518;DHT22;23366;52.498;13.446;2023-04-15T13:18:23;10.50;99.90
37518;DHT22;23366;52.498;13.446;2023-04-15T13:20:49;10.50;99.90
37518;DHT22;23366;52.498;13.446;2023-04-15T13:23:15;10.40;99.90
37518;DHT22;23366;52.498;13.446;2023-04-15T13:25:41;10.40;99.90
37518;DHT22;23366;52.498;13.446;2023-04-15T13:28:08;10.40;99.90
37518;DHT22;23366;52.498;13.446;2023-04-15T13:30:36;10.40;99.90
37518;DHT22;23366;52.498;13.446;2023-04-15T13:33:02;10.50;99.90
37518;DHT22;23366;52.498;13.446;2023-04-15T13:35:27;10.60;99.90
37518;DHT22;23366;52.498;13.446;2023-04-15T13:37:53;10.60;99.90
37518;DHT22;23366;52.498;13.446;2023-04-15T13:40:19;10.60;99.90
37518;DHT22;23366;52.498;13.446;2023-04-15T13:42:45;10.70;99.90
37518;DHT22;23366;52.498;13.446;2023-04-15T13:45:11;10.70;99.90
37518;DHT22;23366;52.498;13.446;2023-04-15T13:47:37;10.70;99.90
37518;DHT22;23366;52.498;13.446;2023-04-15T13:50:03;10.80;99.90
37518;DHT22;23366;52.498;13.446;2023-04-15T13:52:30;10.90;99.90
37518;DHT22;23366;52.498;13.446;2023-04-15T13:54:55;10.80;99.90
37518;DHT22;23366;52.498;13.446;2023-04-15T13:57:21;10.70;99.90
37518;DHT22;23366;52.498;13.446;2023-04-15T13:59:46;10.60;99.90
37518;DHT22;23366;52.498;13.446;2023-04-15T14:02:12;10.60;99.90
37518;DHT22;23366;52.498;13.446;2023-04-15T14:04:37;10.50;99.90
37518;DHT22;23366;52.498;13.446;2023-04-15T14:07:03;10.50;99.90
37518;DHT22;23366;52.498;13.446;2023-04-15T14:09:29;10.40;99.90
37518;DHT22;23366;52.498;13.446;2023-04-15T14:11:54;10.40;99.90
37518;DHT22;23366;52.498;13.446;2023-04-15T14:14:20;10.40;99.90
37518;DHT22;23366;52.498;13.446;2023-04-15T14:16:46;10.40;99.90
37518;DHT22;23366;52.498;13.446;2023-04-15T14:19:13;10.40;99.90
37518;DHT22;23366;52.498;13.446;2023-04-15T14:21:38;10.40;99.90
37518;DHT22;23366;52.498;13.446;2023-04-15T14:24:04;10.40;99.90
37518;DHT22;23366;52.498;13.446;2023-04-15T14:26:30;10.30;99.90
37518;DHT22;23366;52.498;13.446;2023-04-15T14:28:55;10.30;99.90
37518;DHT22;23366;52.498;13.446;2023-04-15T14:31:21;10.20;99.90
37518;DHT22;23366;52.498;13.446;2023-04-15T14:33:46;10.20;99.90
37518;DHT22;23366;52.498;13.446;2023-04-15T14:36:15;10.20;99.90
37518;DHT22;23366;52.498;13.446;2023-04-15T14:38:40;10.40;99.90
37518;DHT22;23366;52.498;13.446;2023-04-15T14:41:06;10.40;99.90
37518;DHT22;23366;52.498;13.446;2023-04-15T14:43:33;10.40;99.90
37518;DHT22;23366;52.498;13.446;2023-04-15T14:45:58;10.40;99.90
37518;DHT22;23366;52.498;13.446;2023-04-15T14:48:24;10.40;99.90
37518;DHT22;23366;52.498;13.446;2023-04-15T14:50:50;10.40;99.90
37518;DHT22;23366;52.498;13.446;2023-04-15T14:53:15;10.40;99.90
37518;DHT22;23366;52.498;13.446;2023-04-15T14:55:43;10.40;99.90
37518;DHT22;23366;52.498;13.446;2023-04-15T14:58:10;10.30;99.90
37518;DHT22;23366;52.498;13.446;2023-04-15T15:00:37;10.30;99.90
37518;DHT22;23366;52.498;13.446;2023-04-15T15:03:05;10.20;99.90
37518;DHT22;23366;52.498;13.446;2023-04-15T15:05:38;10.20;99.90
37518;DHT22;23366;52.498;13.446;2023-04-15T15:08:06;10.20;99.90
37518;DHT22;23366;52.498;13.446;2023-04-15T15:10:32;10.20;99.90
37518;DHT22;23366;52.498;13.446;2023-04-15T15:12:58;10.20;99.90
37518;DHT22;23366;52.498;13.446;2023-04-15T15:15:23;10.20;99.90
37518;DHT22;23366;52.498;13.446;2023-04-15T15:17:49;10.30;99.90
37518;DHT22;23366;52.498;13.446;2023-04-15T15:20:16;10.20;99.90
37518;DHT22;23366;52.498;13.446;2023-04-15T15:22:42;10.20;99.90
37518;DHT22;23366;52.498;13.446;2023-04-15T15:25:07;10.20;99.90
37518;DHT22;23366;52.498;13.446;2023-04-15T15:27:33;10.20;99.90
37518;DHT22;23366;52.498;13.446;2023-04-15T15:29:58;10.20;99.90